Latest Weather Observations for Giles*

IDW60801

Issued at 1:33 pm WST Tuesday 24 October 2017 (issued every 30 minutes, with the page automatically refreshed every 10 minutes)

About weather observations | Map of weather stations | Latest weather observations for WA | Other Formats
Station Details ID: 013017 Name: GILES METEOROLOGICAL OFFICE Lat: -25.03 Lon: 128.30 Height: 598.0 m
Data from the previous 72 hours. | See also: Recent months at Giles*

* Giles observations are collected in the South Australia time zone, which includes daylight saving in the summer period. Therefore, Rain since 9am value is with respect to South Australia local time.

Date/Time
WST
Temp
°C
App
Temp
°C
Dew
Point
°C
Rel
Hum
%
Delta-T
°C
Wind Press
QNH
hPa
Press
MSL
hPa
Rain since
9am
mm
Dir  Spd
km/h
Gust
km/h
Spd
kts
Gust
kts
24/01:25pm 37.0 29.1 -4.6 7 19.9 NNW 28 46 15 25 1012.6 1009.1 0.0
24/01:00pm 36.5 29.4 -4.1 7 19.5 NNW 24 39 13 21 1012.9 1009.4 0.0
24/12:30pm 37.3 30.6 -4.2 7 20.0 NW 22 41 12 22 1013.2 1009.8 0.0
24/12:00pm 36.7 29.3 -7.2 6 20.1 NW 24 43 13 23 1013.9 1010.4 0.0
24/11:30am 36.8 28.6 -7.5 5 20.2 NNW 28 43 15 23 1014.3 1010.8 0.0
24/11:00am 35.8 27.2 -8.3 5 19.7 NNW 30 41 16 22 1014.7 1011.3 0.0
24/10:30am 34.6 25.6 -8.4 6 19.0 N 32 44 17 24 1015.0 1011.6 0.0
24/10:00am 34.7 26.3 -10.3 5 19.3 NNW 28 41 15 22 1015.6 1012.1 0.0
24/09:30am 33.6 25.4 -8.4 6 18.4 NNW 28 39 15 21 1015.8 1012.3 0.0
24/09:00am 32.4 24.3 -7.0 7 17.5 N 28 37 15 20 1016.0 1012.5 0.0
24/08:30am 32.1 23.9 -7.5 7 17.4 N 28 37 15 20 1016.3 1012.9 0.0
24/08:00am 31.9 25.2 -4.0 9 16.7 N 22 32 12 17 1016.3 1012.9 0.0
24/07:30am 30.5 24.2 -0.7 13 15.2 NNE 22 32 12 17 1016.2 1012.8 0.0
24/07:00am 29.7 25.3 4.6 20 13.3 NNE 17 24 9 13 1016.2 1012.8 0.0
24/06:30am 28.4 23.4 6.5 25 11.9 ENE 22 33 12 18 1015.8 1012.3 0.0
24/06:00am 26.4 21.7 5.9 27 10.9 ENE 20 28 11 15 1015.6 1012.1 0.0
24/05:30am 23.4 18.9 4.3 29 9.7 ENE 17 22 9 12 1015.4 1012.0 0.0
24/05:00am 23.8 19.6 5.8 31 9.4 E 17 20 9 11 1015.2 1011.8 0.0
24/04:30am 24.6 20.0 6.3 31 9.7 ENE 20 26 11 14 1014.6 1011.1 0.0
24/04:00am 24.1 20.2 6.9 33 9.2 ENE 17 20 9 11 1014.5 1011.0 0.0
24/03:30am 24.5 21.1 7.5 33 9.2 ENE 15 17 8 9 1014.5 1011.0 0.0
24/03:00am 24.3 21.1 6.7 32 9.4 E 13 15 7 8 1014.5 1011.0 0.0
24/02:30am 22.8 20.3 6.5 35 8.6 E 9 11 5 6 1014.4 1010.9 0.0
24/02:00am 23.6 20.9 5.5 31 9.4 E 9 9 5 5 1014.4 1010.9 0.0
24/01:30am 23.6 21.4 3.4 26 10.1 ESE 4 9 2 5 1014.6 1011.1 0.0
24/01:00am 23.2 21.1 5.7 32 9.1 SSE 6 7 3 4 1014.7 1011.3 0.0
24/12:30am 23.4 20.5 2.7 25 10.2 SSE 7 9 4 5 1014.5 1011.0 0.0
24/12:00am 24.5 18.8 0.3 20 11.5 SW 20 32 11 17 1014.8 1011.4 0.0
 
Date/Time
WST
Temp
°C
App
Temp
°C
Dew
Point
°C
Rel
Hum
%
Delta-T
°C
Wind Press
QNH
hPa
Press
MSL
hPa
Rain since
9am
mm
Dir  Spd
km/h
Gust
km/h
Spd
kts
Gust
kts
23/11:30pm 25.9 22.4 1.4 20 12.0 NNE 9 11 5 6 1014.6 1011.1 0.0
23/11:00pm 26.4 22.6 1.7 20 12.2 NE 11 13 6 7 1015.0 1011.6 0.0
23/10:30pm 26.0 22.6 1.6 20 12.0 NE 9 13 5 7 1015.2 1011.8 0.0
23/10:00pm 24.3 21.5 3.4 25 10.5 E 7 11 4 6 1015.3 1011.9 0.0
23/09:30pm 27.2 23.0 1.6 19 12.7 ENE 13 15 7 8 1015.3 1011.9 0.0
23/09:00pm 27.1 22.9 1.7 19 12.6 ENE 13 17 7 9 1015.6 1012.1 0.0
23/08:30pm 27.3 23.1 1.8 19 12.7 ENE 13 15 7 8 1015.6 1012.1 0.0
23/08:00pm 27.2 23.1 2.3 20 12.5 ENE 13 15 7 8 1015.4 1012.0 0.0
23/07:30pm 26.9 22.8 2.0 20 12.4 ENE 13 15 7 8 1015.1 1011.7 0.0
23/07:00pm 26.9 22.2 0.9 18 12.7 E 15 15 8 8 1014.8 1011.4 0.0
23/06:30pm 27.8 24.2 0.6 17 13.3 ESE 9 11 5 6 1014.8 1011.4 0.0
23/06:00pm 29.4 26.1 0.0 15 14.4 SSW 7 7 4 4 1014.6 1011.1 0.0
23/05:30pm 30.9 28.3 0.7 14 15.1 SSW 4 6 2 3 1014.2 1010.7 0.0
23/05:00pm 31.5 28.0 -1.6 12 16.0 SSW 7 9 4 5 1014.0 1010.5 0.0
23/04:30pm 32.1 26.6 -5.0 9 17.0 SW 15 20 8 11 1014.0 1010.5 0.0
23/04:00pm 32.2 26.4 -4.6 9 17.0 WSW 17 26 9 14 1013.9 1010.4 0.0
23/03:30pm 32.3 28.2 -3.2 10 16.8 SSW 9 15 5 8 1013.8 1010.3 0.0
23/03:00pm 32.8 27.3 -5.5 8 17.5 WSW 15 22 8 12 1013.6 1010.2 0.0
23/02:30pm 33.3 27.3 -6.7 7 18.0 W 17 24 9 13 1013.8 1010.3 0.0
23/02:00pm 33.5 27.3 -8.7 6 18.4 WNW 17 26 9 14 1013.9 1010.4 0.0
23/01:30pm 33.6 27.5 -7.6 6 18.3 WNW 17 24 9 13 1014.0 1010.5 0.0
23/01:00pm 33.5 27.6 -6.0 7 18.0 NNE 17 26 9 14 1014.1 1010.6 0.0
23/12:30pm 33.7 26.9 -11.9 5 18.9 N 19 33 10 18 1014.5 1011.0 0.0
23/12:00pm 34.8 28.1 -10.6 5 19.4 NW 19 33 10 18 1014.9 1011.5 0.0
23/11:30am 33.5 25.6 -15.2 4 19.1 N 24 32 13 17 1015.3 1011.9 0.0
23/11:00am 32.7 23.8 -18.6 3 18.9 NNW 28 41 15 22 1015.8 1012.3 0.0
23/10:30am 32.5 23.9 -22.2 2 19.0 N 26 39 14 21 1015.9 1012.4 0.0
23/10:00am 31.8 22.9 -18.8 3 18.4 N 28 35 15 19 1016.3 1012.9 0.0
23/09:30am 32.0 23.7 -14.9 4 18.2 N 26 39 14 21 1016.7 1013.3 0.0
23/09:00am 30.7 21.8 -19.1 3 17.8 N 28 41 15 22 1016.9 1013.5 0.0
23/08:30am 29.4 20.5 -19.4 3 17.1 NNE 28 37 15 20 1017.0 1013.6 0.0
23/08:00am 28.2 19.4 -17.4 4 16.3 NNE 28 37 15 20 1017.0 1013.6 0.0
23/07:30am 27.4 18.5 -20.7 3 16.1 NNE 28 39 15 21 1017.1 1013.7 0.0
23/07:00am 26.5 17.6 -18.8 4 15.5 NNE 28 48 15 26 1016.7 1013.3 0.0
23/06:51am 26.4 17.5 -21.1 3 15.6 NNE 28 48 15 26 1016.7 1013.3 0.0
23/06:30am 26.4 18.0 -17.0 5 15.3 NNE 26 41 14 22 1016.6 1013.2 0.0
23/06:00am 25.9 21.9 -13.5 6 14.7 NE 4 28 2 15 1016.5 1013.1 0.0
23/05:30am 24.2 18.9 -11.7 8 13.6 SE 11 13 6 7 1016.1 1012.6 0.0
23/05:00am 23.0 18.3 -9.7 10 12.7 E 9 15 5 8 1015.8 1012.3 0.0
23/04:30am 24.1 18.4 -12.1 8 13.6 NE 13 19 7 10 1015.7 1012.2 0.0
23/04:00am 23.6 18.3 -12.6 8 13.4 NNE 11 15 6 8 1015.7 1012.2 0.0
23/03:30am 23.6 17.9 -12.6 8 13.4 ENE 13 20 7 11 1015.3 1011.9 0.0
23/03:00am 23.9 17.1 -11.4 9 13.4 ENE 19 26 10 14 1015.2 1011.8 0.0
23/02:30am 24.3 17.8 -12.9 7 13.8 ENE 17 24 9 13 1015.1 1011.7 0.0
23/02:00am 24.2 17.4 -12.5 8 13.7 ENE 19 26 10 14 1014.7 1011.3 0.0
23/01:30am 23.9 17.9 -11.4 9 13.4 E 15 19 8 10 1015.1 1011.7 0.0
23/01:00am 23.4 18.8 -7.7 12 12.6 E 9 11 5 6 1015.4 1012.0 0.0
23/12:30am 24.4 19.7 -8.8 10 13.3 E 9 13 5 7 1015.8 1012.3 0.0
23/12:00am 24.8 19.6 -10.1 9 13.7 ENE 11 13 6 7 1016.1 1012.6 0.0
 
Date/Time
WST
Temp
°C
App
Temp
°C
Dew
Point
°C
Rel
Hum
%
Delta-T
°C
Wind Press
QNH
hPa
Press
MSL
hPa
Rain since
9am
mm
Dir  Spd
km/h
Gust
km/h
Spd
kts
Gust
kts
22/11:30pm 25.0 19.4 -10.8 8 13.9 ENE 13 17 7 9 1016.2 1012.8 0.0
22/11:00pm 24.6 19.5 -9.5 9 13.5 E 11 13 6 7 1016.5 1013.1 0.0
22/10:30pm 25.6 19.7 -9.9 9 14.1 ENE 15 20 8 11 1016.7 1013.3 0.0
22/10:00pm 24.6 19.2 -8.8 10 13.4 ENE 13 15 7 8 1016.9 1013.5 0.0
22/09:30pm 25.1 20.3 -6.5 12 13.3 ENE 11 13 6 7 1017.3 1013.8 0.0
22/09:00pm 24.7 21.2 -1.3 18 12.0 ENE 7 9 4 5 1017.6 1014.1 0.0
22/08:30pm 25.9 21.8 -2.8 15 13.0 NE 9 11 5 6 1017.9 1014.5 0.0
22/08:00pm 27.0 22.9 -3.2 13 13.7 NE 9 11 5 6 1017.8 1014.4 0.0
22/07:30pm 27.6 23.4 -3.5 13 14.1 NE 9 11 5 6 1017.7 1014.3 0.0
22/07:00pm 27.7 23.6 -2.7 13 14.0 NE 9 11 5 6 1017.7 1014.3 0.0
22/06:30pm 28.1 24.4 -2.6 13 14.2 NE 7 9 4 5 1017.5 1014.0 0.0
22/06:00pm 28.0 24.3 -3.3 12 14.3 E 7 9 4 5 1017.3 1013.8 0.0
22/05:30pm 28.6 25.3 -1.2 14 14.2 ESE 6 7 3 4 1017.1 1013.7 0.0
22/05:00pm 30.1 25.8 -4.9 10 15.8 E 9 13 5 7 1016.9 1013.5 0.0
22/04:30pm 30.4 27.0 -5.6 9 16.1 ENE 4 11 2 6 1016.9 1013.5 0.0
22/04:00pm 30.7 26.7 -7.6 8 16.6 ENE 6 7 3 4 1016.7 1013.3 0.0
22/03:30pm 30.6 26.4 -7.3 8 16.5 E 7 9 4 5 1016.6 1013.2 0.0
22/03:00pm 30.8 26.5 -10.9 6 17.1 SW 6 15 3 8 1016.6 1013.2 0.0
22/02:30pm 30.8 25.4 -8.6 7 16.8 NE 13 20 7 11 1016.6 1013.2 0.0
22/02:00pm 31.0 26.4 -8.5 7 16.9 NE 9 17 5 9 1016.7 1013.3 0.0
22/01:30pm 31.0 25.0 -10.8 6 17.2 ESE 15 20 8 11 1017.0 1013.6 0.0
22/01:00pm 30.9 26.7 -8.2 7 16.8 NNE 7 13 4 7 1017.3 1013.8 0.0
22/12:30pm 30.6 25.5 -9.5 7 16.8 ENE 11 19 6 10 1017.7 1014.3 0.0
22/12:00pm 29.7 24.4 -6.8 9 15.9 NE 13 24 7 13 1018.1 1014.7 0.0
22/11:30am 28.8 23.2 -6.9 9 15.4 ENE 15 24 8 13 1018.7 1015.3 0.0
22/11:00am 28.9 23.0 -5.4 10 15.2 E 17 24 9 13 1019.3 1015.9 0.0
22/10:30am 28.2 21.9 -6.0 10 14.9 ENE 19 30 10 16 1019.7 1016.3 0.0
22/10:00am 27.4 21.5 -5.2 11 14.3 NE 17 26 9 14 1020.0 1016.6 0.0
22/09:30am 27.6 21.2 -5.1 11 14.4 ENE 20 30 11 16 1020.4 1017.0 0.0
22/09:00am 26.6 20.3 -4.4 12 13.7 ENE 20 32 11 17 1020.5 1017.1 0.0
22/08:30am 25.4 18.2 -5.2 13 13.2 ENE 24 33 13 18 1020.9 1017.5 0.0
22/08:00am 25.5 18.3 -4.9 13 13.2 ENE 24 35 13 19 1020.9 1017.5 0.0
22/07:30am 24.5 18.1 -5.2 13 12.7 ENE 20 32 11 17 1021.0 1017.6 0.0
22/07:00am 23.8 17.7 -3.6 16 12.0 ENE 19 30 10 16 1020.7 1017.4 0.0
22/06:30am 22.1 15.8 -4.1 17 11.2 ENE 20 28 11 15 1020.4 1017.0 0.0
22/06:00am 21.2 15.0 -3.5 19 10.6 ENE 20 30 11 16 1020.3 1016.9 0.0
22/05:30am 20.5 13.7 -4.7 18 10.5 ENE 22 32 12 17 1019.9 1016.5 0.0
22/05:00am 18.4 12.8 -3.2 23 9.1 E 17 22 9 12 1019.8 1016.4 0.0
22/04:30am 16.5 11.4 -2.2 27 7.9 E 15 17 8 9 1019.7 1016.3 0.0
22/04:00am 17.6 11.6 -3.2 24 8.7 E 19 22 10 12 1019.4 1016.0 0.0
22/03:30am 17.4 11.8 -3.2 24 8.6 E 17 20 9 11 1019.3 1015.9 0.0
22/03:00am 16.7 11.5 -2.6 26 8.1 ESE 15 17 8 9 1019.4 1016.0 0.0
22/02:30am 17.4 11.8 -3.2 24 8.6 ESE 17 19 9 10 1019.3 1015.9 0.0
22/02:00am 18.2 12.5 -4.1 21 9.2 E 17 20 9 11 1019.3 1015.9 0.0
22/01:30am 18.3 13.4 -3.4 22 9.1 E 13 17 7 9 1019.4 1016.0 0.0
22/01:00am 18.3 13.8 -3.0 23 9.0 E 11 13 6 7 1019.5 1016.1 0.0
22/12:30am 18.8 16.1 -2.8 23 9.2 NE 2 6 1 3 1019.6 1016.2 0.0
22/12:00am 20.1 14.6 -5.2 17 10.4 ESE 15 20 8 11 1019.6 1016.2 0.0
 
Date/Time
WST
Temp
°C
App
Temp
°C
Dew
Point
°C
Rel
Hum
%
Delta-T
°C
Wind Press
QNH
hPa
Press
MSL
hPa
Rain since
9am
mm
Dir  Spd
km/h
Gust
km/h
Spd
kts
Gust
kts
21/11:30pm 19.4 13.8 -2.8 22 9.5 ESE 17 17 9 9 1019.9 1016.5 0.0
21/11:00pm 20.6 15.0 -3.1 20 10.2 E 17 20 9 11 1020.2 1016.8 0.0
21/10:30pm 20.6 15.5 -1.8 22 9.9 E 15 17 8 9 1020.5 1017.1 0.0
21/10:00pm 21.6 16.9 -2.1 20 10.5 E 13 17 7 9 1020.7 1017.4 0.0
21/09:30pm 22.7 17.9 -2.6 18 11.2 E 13 17 7 9 1020.7 1017.4 0.0
21/09:00pm 23.4 18.4 -1.0 19 11.2 E 15 20 8 11 1020.7 1017.4 0.0
21/08:30pm 24.4 19.5 -0.8 19 11.7 E 15 20 8 11 1020.5 1017.1 0.0
21/08:00pm 25.2 19.5 -1.0 17 12.2 ESE 19 24 10 13 1020.4 1017.0 0.0
21/07:30pm 25.7 20.4 -0.3 18 12.3 ESE 17 22 9 12 1020.3 1016.9 0.0
21/07:00pm 25.4 20.7 0.6 19 11.9 ESE 15 19 8 10 1020.1 1016.7 0.0
21/06:30pm 26.3 22.0 1.0 19 12.3 ESE 13 15 7 8 1019.8 1016.4 0.0
21/06:00pm 28.1 23.3 0.4 16 13.5 SE 15 19 8 10 1019.6 1016.2 0.0
21/05:30pm 29.7 24.4 -0.3 14 14.6 ESE 17 26 9 14 1019.3 1015.9 0.0
21/05:00pm 31.1 25.4 0.3 14 15.3 SE 20 28 11 15 1019.1 1015.6 0.0
21/04:30pm 31.8 26.5 2.0 15 15.3 ESE 19 26 10 14 1019.1 1015.6 0.0
21/04:00pm 32.5 27.2 2.1 14 15.7 ESE 19 30 10 16 1019.1 1015.6 0.0
21/03:30pm 32.0 26.7 3.2 16 15.1 E 20 32 11 17 1019.4 1016.0 0.0
21/03:00pm 32.0 27.5 2.4 15 15.3 ESE 15 22 8 12 1019.5 1016.1 0.0
21/02:30pm 32.0 27.7 3.2 16 15.1 ESE 15 24 8 13 1019.7 1016.3 0.0
21/02:00pm 31.6 27.3 3.4 16 14.8 ENE 15 24 8 13 1019.9 1016.5 0.0
21/01:30pm 31.7 27.4 3.2 16 14.9 E 15 26 8 14 1020.3 1016.9 0.0
21/01:00pm 31.3 27.1 3.8 17 14.5 ENE 15 30 8 16 1020.9 1017.5 0.0
21/12:30pm 31.6 27.3 3.3 16 14.8 E 15 26 8 14 1021.4 1018.0 0.0
21/12:00pm 31.6 27.3 3.3 16 14.8 ENE 15 26 8 14 1021.8 1018.4 0.0
21/11:30am 30.8 26.0 2.6 16 14.6 E 17 28 9 15 1022.3 1019.0 0.0

Other Formats:

Comma delimited format used in spreadsheet applications
http://www.bom.gov.au/fwo/IDW60801/IDW60801.94461.axf

JavaScript Object Notation format (JSON) in row-major order
http://www.bom.gov.au/fwo/IDW60801/IDW60801.94461.json